Time;durP1;ratioP1;P1;durP2;ratioP2;P2;SDS_P1;SDS_P2;PMS_P1;PMS_P2;Temp;Humidity;BMP_temperature;BMP_pressure;BME280_temperature;BME280_humidity;BME280_pressure;Samples;Min_cycle;Max_cycle;Signal;HPM_P1;HPM_P2
2022/11/27 00:01:37;;;;;;;7.53;1.73;;;24.80;61.00;;;;;;4113574;28;20042;-45
2022/11/27 00:04:00;;;;;;;10.63;2.30;;;24.90;61.50;;;;;;4105951;28;20046;-45
2022/11/27 00:06:25;;;;;;;8.30;1.80;;;24.90;61.70;;;;;;4109287;28;20048;-41
2022/11/27 00:08:49;;;;;;;10.75;1.90;;;24.90;61.60;;;;;;4111812;28;20570;-43
2022/11/27 00:11:16;;;;;;;5.28;1.30;;;24.90;61.50;;;;;;4109217;28;20124;-42
2022/11/27 00:13:38;;;;;;;3.58;1.02;;;24.90;61.50;;;;;;4114320;28;20514;-45
2022/11/27 00:16:01;;;;;;;1.80;0.93;;;24.90;61.30;;;;;;4117139;28;20502;-42
2022/11/27 00:18:23;;;;;;;6.18;1.25;;;24.90;61.10;;;;;;4112136;28;20141;-47
2022/11/27 00:20:46;;;;;;;7.45;1.20;;;24.90;61.60;;;;;;4115330;28;20050;-43
2022/11/27 00:23:11;;;;;;;4.38;1.08;;;25.00;61.60;;;;;;4116585;28;20133;-43
2022/11/27 00:25:34;;;;;;;4.78;0.80;;;25.00;61.80;;;;;;4117691;28;20439;-42
2022/11/27 00:27:56;;;;;;;2.33;1.00;;;25.00;62.10;;;;;;4110194;28;20054;-42
2022/11/27 00:30:19;;;;;;;1.67;0.82;;;25.00;62.10;;;;;;4112559;28;20837;-42
2022/11/27 00:32:41;;;;;;;3.78;0.98;;;25.00;62.10;;;;;;4113274;28;20045;-41
2022/11/27 00:35:04;;;;;;;1.33;0.82;;;25.10;62.20;;;;;;4103658;28;20050;-41
2022/11/27 00:37:27;;;;;;;4.67;0.83;;;25.10;62.50;;;;;;4108828;28;20049;-42
2022/11/27 00:39:49;;;;;;;1.45;0.85;;;25.10;62.90;;;;;;4112292;28;20323;-42
2022/11/27 00:42:12;;;;;;;6.40;1.17;;;25.10;63.50;;;;;;4115251;28;20213;-42
2022/11/27 00:44:35;;;;;;;5.43;0.90;;;25.20;64.10;;;;;;4111503;28;20510;-43
2022/11/27 00:46:57;;;;;;;3.45;0.75;;;25.20;64.10;;;;;;4115564;28;20069;-48
2022/11/27 00:49:20;;;;;;;6.18;0.77;;;25.30;63.80;;;;;;4111990;28;20535;-43
2022/11/27 00:51:43;;;;;;;3.35;0.90;;;25.30;63.60;;;;;;4109814;28;20126;-41
2022/11/27 00:54:06;;;;;;;2.63;0.87;;;25.40;63.60;;;;;;4114737;28;20511;-46
2022/11/27 00:56:31;;;;;;;0.88;0.63;;;25.40;63.30;;;;;;4106265;28;20577;-43
2022/11/27 00:58:54;;;;;;;5.72;1.20;;;25.40;63.20;;;;;;4108745;28;20052;-48
2022/11/27 01:01:21;;;;;;;5.40;0.93;;;25.50;63.30;;;;;;4112481;28;20042;-46
2022/11/27 01:03:44;;;;;;;4.10;1.27;;;25.60;62.30;;;;;;4107177;28;20514;-47
2022/11/27 01:06:07;;;;;;;5.47;1.70;;;25.60;60.40;;;;;;4108363;28;20038;-48
2022/11/27 01:08:29;;;;;;;3.50;1.50;;;25.50;59.30;;;;;;4109645;28;20057;-49
2022/11/27 01:10:55;;;;;;;3.95;1.70;;;25.50;59.10;;;;;;4105357;28;20057;-47
2022/11/27 01:13:18;;;;;;;5.35;1.60;;;25.50;58.70;;;;;;4109367;28;20050;-47
2022/11/27 01:15:40;;;;;;;3.75;1.70;;;25.50;59.90;;;;;;4094493;28;20214;-47
2022/11/27 01:18:03;;;;;;;5.53;2.00;;;25.50;59.80;;;;;;4109191;28;20490;-43
2022/11/27 01:20:25;;;;;;;4.95;1.70;;;25.60;59.70;;;;;;4111125;28;20140;-45
2022/11/27 01:22:48;;;;;;;5.55;2.03;;;25.60;59.80;;;;;;4111477;28;20050;-47
2022/11/27 01:25:10;;;;;;;7.45;2.38;;;25.60;58.20;;;;;;4110260;28;20030;-52
2022/11/27 01:27:33;;;;;;;6.78;2.03;;;25.70;57.40;;;;;;4113679;28;20046;-47
2022/11/27 01:29:55;;;;;;;8.55;2.20;;;25.70;56.90;;;;;;4114978;28;20096;-49
2022/11/27 01:32:18;;;;;;;6.22;1.95;;;25.70;56.70;;;;;;4113758;28;20038;-46
2022/11/27 01:34:40;;;;;;;5.35;2.00;;;25.80;56.80;;;;;;4114080;28;20066;-47
2022/11/27 01:37:03;;;;;;;5.63;2.33;;;25.80;56.60;;;;;;4113096;28;20035;-48
2022/11/27 01:39:25;;;;;;;7.35;2.05;;;25.80;56.40;;;;;;4109523;28;20373;-49
2022/11/27 01:41:48;;;;;;;6.80;2.28;;;25.80;56.30;;;;;;4117285;28;20042;-48
2022/11/27 01:44:23;;;;;;;6.38;1.77;;;25.80;56.20;;;;;;4121322;28;20042;-50
2022/11/27 01:46:50;;;;;;;5.80;1.90;;;25.80;56.20;;;;;;4118081;28;20053;-46
2022/11/27 01:49:30;;;;;;;3.67;1.80;;;25.80;56.00;;;;;;4114735;28;20034;-51
2022/11/27 01:52:29;;;;;;;4.68;1.88;;;25.80;56.00;;;;;;4114188;28;20518;-47
2022/11/27 01:55:01;;;;;;;3.67;1.58;;;25.80;56.00;;;;;;4085064;28;20043;-48
2022/11/27 01:57:46;;;;;;;2.42;1.63;;;25.80;55.50;;;;;;4114792;28;20089;-47
2022/11/27 02:00:12;;;;;;;3.08;1.80;;;25.80;56.00;;;;;;4117455;28;20152;-48
2022/11/27 02:02:35;;;;;;;5.38;2.10;;;25.80;55.90;;;;;;4116665;28;20467;-47
2022/11/27 02:04:58;;;;;;;4.00;1.70;;;25.80;55.80;;;;;;4117120;28;20046;-47
2022/11/27 02:07:21;;;;;;;4.60;1.63;;;25.80;55.80;;;;;;4116937;28;20051;-46
2022/11/27 02:09:44;;;;;;;4.72;1.50;;;25.80;55.80;;;;;;4119294;28;20719;-48
2022/11/27 02:12:25;;;;;;;3.05;1.73;;;25.80;55.80;;;;;;4106792;28;20031;-48
2022/11/27 02:15:38;;;;;;;3.70;1.60;;;25.90;55.90;;;;;;4109562;28;20113;-45
2022/11/27 02:18:45;;;;;;;2.35;1.45;;;25.90;55.80;;;;;;4082218;28;20034;-49
2022/11/27 02:21:28;;;;;;;4.47;1.73;;;25.90;55.80;;;;;;4106136;28;20035;-48
2022/11/27 02:24:25;;;;;;;5.37;1.90;;;25.90;55.80;;;;;;4114698;28;20113;-50
2022/11/27 02:27:35;;;;;;;3.90;1.45;;;25.90;55.80;;;;;;4115544;28;20062;-49
2022/11/27 02:30:00;;;;;;;2.55;1.58;;;25.90;55.80;;;;;;4105705;28;20121;-48
2022/11/27 02:32:31;;;;;;;2.88;1.63;;;25.90;55.90;;;;;;4114295;28;20137;-46
2022/11/27 02:35:32;;;;;;;2.60;1.40;;;25.90;55.80;;;;;;4111133;28;20046;-47
2022/11/27 02:38:22;;;;;;;3.05;1.40;;;25.90;55.80;;;;;;4110807;28;20819;-48
2022/11/27 02:40:49;;;;;;;2.47;1.33;;;25.90;55.90;;;;;;4117795;28;20078;-49
2022/11/27 02:43:18;;;;;;;3.85;1.50;;;25.90;55.90;;;;;;4108912;28;20499;-46
2022/11/27 02:45:51;;;;;;;1.60;1.27;;;25.90;55.90;;;;;;4102521;28;20106;-45
2022/11/27 02:48:16;;;;;;;4.33;1.80;;;25.90;56.00;;;;;;4110448;28;20047;-47
2022/11/27 02:50:42;;;;;;;2.60;1.40;;;25.90;55.90;;;;;;4109593;28;20034;-50
2022/11/27 02:53:10;;;;;;;2.55;1.65;;;25.90;56.00;;;;;;4108901;28;20049;-48
2022/11/27 02:55:35;;;;;;;3.38;1.63;;;25.90;56.00;;;;;;4111579;28;20038;-50
2022/11/27 02:58:00;;;;;;;4.18;1.63;;;25.90;56.00;;;;;;4104445;28;20771;-48
2022/11/27 03:00:23;;;;;;;2.15;1.52;;;25.90;56.10;;;;;;4107913;28;20046;-46
2022/11/27 03:03:00;;;;;;;5.72;1.67;;;25.90;56.00;;;;;;4106829;28;20043;-47
2022/11/27 03:05:25;;;;;;;1.85;1.33;;;25.90;56.10;;;;;;4100936;28;20035;-46
2022/11/27 03:08:14;;;;;;;4.55;1.73;;;25.90;56.00;;;;;;4106525;28;20069;-47
2022/11/27 03:11:06;;;;;;;2.10;1.48;;;25.90;56.10;;;;;;4102751;28;20046;-50
2022/11/27 03:13:32;;;;;;;2.63;1.60;;;25.90;56.20;;;;;;4106973;28;20058;-47
2022/11/27 03:16:32;;;;;;;2.50;1.48;;;26.00;56.20;;;;;;4107812;28;20034;-46
2022/11/27 03:19:22;;;;;;;2.42;1.55;;;26.00;56.30;;;;;;4051647;29;20076;-44
2022/11/27 03:21:59;;;;;;;2.80;1.40;;;26.00;56.40;;;;;;4109096;28;20038;-46
2022/11/27 03:24:21;;;;;;;2.25;1.40;;;26.00;56.50;;;;;;4108670;28;20040;-49
2022/11/27 03:26:44;;;;;;;3.55;1.77;;;26.10;56.60;;;;;;4109314;28;20500;-47
2022/11/27 03:29:13;;;;;;;3.53;1.50;;;26.10;56.60;;;;;;4111787;28;20498;-44
2022/11/27 03:31:36;;;;;;;2.22;1.60;;;26.10;56.60;;;;;;4102994;28;20039;-45
2022/11/27 03:33:59;;;;;;;2.92;1.88;;;26.10;56.70;;;;;;4113742;28;20081;-47
2022/11/27 03:36:22;;;;;;;2.17;1.42;;;26.20;56.80;;;;;;4116524;28;20113;-44
2022/11/27 03:38:46;;;;;;;2.15;1.40;;;26.20;56.80;;;;;;4112418;28;20120;-46
2022/11/27 03:41:19;;;;;;;2.45;1.40;;;26.20;56.80;;;;;;4113526;28;20038;-45
2022/11/27 03:44:10;;;;;;;4.97;1.70;;;26.20;56.90;;;;;;4109461;28;20088;-47
2022/11/27 03:46:51;;;;;;;3.00;1.55;;;26.20;56.80;;;;;;4110494;28;20145;-49
2022/11/27 03:49:35;;;;;;;2.45;1.50;;;26.20;56.90;;;;;;4113292;28;20386;-48
2022/11/27 03:52:40;;;;;;;3.35;1.67;;;26.20;56.90;;;;;;4107114;28;20148;-48
2022/11/27 03:55:20;;;;;;;;;;;26.30;57.00;;;;;;4099438;28;20050;-45
2022/11/27 03:57:55;;;;;;;3.25;1.65;;;26.30;56.90;;;;;;4110222;28;19992;-45
2022/11/27 04:00:18;;;;;;;2.90;1.73;;;26.30;56.80;;;;;;4108365;28;20066;-52
2022/11/27 04:02:52;;;;;;;2.45;1.70;;;26.40;56.80;;;;;;4105666;28;20388;-45
2022/11/27 04:05:14;;;;;;;;;;;26.40;56.60;;;;;;4110742;28;20041;-47
2022/11/27 04:07:37;;;;;;;3.03;2.03;;;26.50;56.70;;;;;;4107163;28;19921;-47
2022/11/27 04:09:59;;;;;;;2.50;1.70;;;26.50;56.60;;;;;;4105704;28;20083;-45
2022/11/27 04:12:22;;;;;;;2.80;1.77;;;26.60;56.60;;;;;;4108774;28;20035;-47
2022/11/27 04:14:44;;;;;;;3.13;1.70;;;26.60;56.40;;;;;;4116764;28;20057;-45
2022/11/27 04:17:08;;;;;;;3.63;1.75;;;26.70;56.40;;;;;;4113108;28;20480;-50
2022/11/27 04:19:31;;;;;;;2.67;1.77;;;26.70;56.90;;;;;;4116257;28;20034;-45
2022/11/27 04:21:53;;;;;;;2.38;1.92;;;26.70;56.10;;;;;;4111479;28;20414;-47
2022/11/27 04:24:16;;;;;;;2.75;1.70;;;26.80;56.10;;;;;;4115914;28;20515;-49
2022/11/27 04:26:38;;;;;;;3.38;1.83;;;26.80;56.00;;;;;;4115854;28;20073;-46
2022/11/27 04:29:01;;;;;;;2.10;1.55;;;26.80;56.00;;;;;;4105118;28;20502;-50
2022/11/27 04:31:23;;;;;;;2.85;1.60;;;26.80;56.00;;;;;;4114199;28;20078;-46
2022/11/27 04:33:46;;;;;;;3.13;1.75;;;26.80;55.90;;;;;;4103101;28;20035;-45
2022/11/27 04:36:08;;;;;;;3.00;1.67;;;26.80;55.90;;;;;;4114267;28;20105;-45
2022/11/27 04:38:31;;;;;;;3.05;1.70;;;26.90;55.90;;;;;;4111105;28;20410;-46
2022/11/27 04:40:54;;;;;;;2.72;1.65;;;26.90;55.90;;;;;;4108330;28;20050;-47
2022/11/27 04:43:16;;;;;;;2.80;1.58;;;26.90;55.90;;;;;;4104879;28;20101;-46
2022/11/27 04:45:40;;;;;;;3.05;1.92;;;26.90;55.90;;;;;;4104067;28;20039;-47
2022/11/27 04:48:03;;;;;;;3.45;2.13;;;26.90;55.90;;;;;;4097649;28;20035;-43
2022/11/27 04:50:26;;;;;;;3.38;1.85;;;27.00;56.00;;;;;;4098880;28;20042;-44
2022/11/27 04:52:48;;;;;;;3.97;2.03;;;27.00;55.90;;;;;;4107819;28;20505;-47
2022/11/27 04:55:11;;;;;;;3.30;1.67;;;27.00;55.80;;;;;;4106580;28;20124;-45
2022/11/27 04:57:33;;;;;;;4.05;1.80;;;27.00;55.80;;;;;;4104479;28;20039;-45
2022/11/27 04:59:56;;;;;;;3.37;2.20;;;27.00;55.70;;;;;;4114565;28;20043;-45
2022/11/27 05:02:18;;;;;;;3.03;1.88;;;27.10;55.70;;;;;;4109251;28;20415;-49
2022/11/27 05:04:41;;;;;;;4.03;2.05;;;27.10;55.70;;;;;;4113070;28;20042;-48
2022/11/27 05:07:04;;;;;;;4.68;1.85;;;27.10;55.70;;;;;;4108860;28;20467;-49
2022/11/27 05:09:26;;;;;;;3.75;2.03;;;27.10;55.60;;;;;;4113233;28;20474;-48
2022/11/27 05:11:49;;;;;;;2.47;1.73;;;27.10;55.60;;;;;;4108676;28;20059;-46
2022/11/27 05:14:15;;;;;;;2.67;2.13;;;27.10;55.60;;;;;;4118750;28;20047;-44
2022/11/27 05:16:38;;;;;;;3.13;1.80;;;27.20;55.70;;;;;;4110586;28;20121;-47
2022/11/27 05:19:01;;;;;;;2.40;1.60;;;27.20;55.60;;;;;;4112679;28;20490;-44
2022/11/27 05:21:23;;;;;;;2.23;1.70;;;27.20;55.60;;;;;;4111587;28;20035;-45
2022/11/27 05:23:46;;;;;;;2.17;1.90;;;27.20;55.60;;;;;;4115289;28;20047;-47
2022/11/27 05:26:08;;;;;;;2.15;1.77;;;27.20;55.90;;;;;;4111521;28;20102;-47
2022/11/27 05:28:31;;;;;;;2.42;1.63;;;27.20;55.60;;;;;;4106492;28;20340;-47
2022/11/27 05:30:53;;;;;;;3.03;1.80;;;27.20;55.60;;;;;;4108331;28;20109;-46
2022/11/27 05:33:17;;;;;;;3.42;2.20;;;27.20;55.60;;;;;;4112918;28;20530;-50
2022/11/27 05:35:40;;;;;;;1.92;1.58;;;27.20;55.60;;;;;;4110601;28;20479;-46
2022/11/27 05:38:03;;;;;;;2.73;1.60;;;27.20;55.60;;;;;;4108029;28;20049;-45
2022/11/27 05:40:25;;;;;;;2.35;1.73;;;27.30;55.60;;;;;;4114062;28;20546;-46
2022/11/27 05:42:48;;;;;;;1.85;1.58;;;27.30;55.50;;;;;;4113459;28;20077;-50
2022/11/27 05:45:10;;;;;;;2.63;1.77;;;27.30;55.40;;;;;;4113504;28;20479;-45
2022/11/27 05:47:33;;;;;;;2.65;1.67;;;27.30;55.40;;;;;;4115473;28;20046;-45
2022/11/27 05:49:55;;;;;;;2.63;1.50;;;27.40;55.40;;;;;;4117105;28;20049;-44
2022/11/27 05:52:18;;;;;;;2.17;1.50;;;27.40;55.20;;;;;;4109819;28;20049;-47
2022/11/27 05:54:40;;;;;;;1.75;1.33;;;27.50;55.20;;;;;;4112561;28;20189;-49
2022/11/27 05:57:03;;;;;;;3.53;1.80;;;27.60;55.00;;;;;;4106126;28;20045;-50
2022/11/27 05:59:26;;;;;;;2.70;1.80;;;27.70;54.90;;;;;;4108365;28;20074;-51
2022/11/27 06:01:48;;;;;;;2.47;1.52;;;27.70;54.70;;;;;;4097645;28;20227;-47
2022/11/27 06:04:11;;;;;;;3.88;1.65;;;27.80;54.60;;;;;;4105765;28;21091;-48
2022/11/27 06:06:33;;;;;;;1.95;1.50;;;27.90;54.50;;;;;;4106821;28;20134;-47
2022/11/27 06:08:56;;;;;;;2.92;1.75;;;27.90;54.50;;;;;;4110908;28;20050;-50
2022/11/27 06:11:21;;;;;;;3.22;1.83;;;27.90;54.40;;;;;;4105778;28;20066;-51
2022/11/27 06:13:44;;;;;;;2.05;1.52;;;27.90;54.40;;;;;;4105514;28;20483;-49
2022/11/27 06:16:10;;;;;;;2.85;1.65;;;27.90;54.30;;;;;;4104029;28;20454;-45
2022/11/27 06:18:32;;;;;;;2.00;1.50;;;27.90;54.30;;;;;;4104470;28;20047;-44
2022/11/27 06:20:55;;;;;;;3.87;1.60;;;27.90;54.30;;;;;;4102046;28;20038;-45
2022/11/27 06:23:17;;;;;;;2.35;1.67;;;27.90;54.30;;;;;;4117563;28;20057;-46
2022/11/27 06:25:40;;;;;;;2.63;1.77;;;27.90;54.40;;;;;;4109347;28;20124;-47
2022/11/27 06:28:03;;;;;;;2.08;1.65;;;27.90;54.30;;;;;;4112301;28;20058;-48
2022/11/27 06:30:25;;;;;;;2.85;1.45;;;27.90;54.30;;;;;;4114963;28;20121;-46
2022/11/27 06:32:48;;;;;;;3.33;1.60;;;28.00;54.20;;;;;;4116711;28;20042;-45
2022/11/27 06:35:10;;;;;;;2.50;1.52;;;28.10;54.00;;;;;;4111577;28;20118;-45
2022/11/27 06:37:33;;;;;;;2.70;1.73;;;28.10;54.00;;;;;;4115967;28;20480;-47
2022/11/27 06:39:55;;;;;;;3.15;1.75;;;28.10;53.90;;;;;;4117180;28;20125;-46
2022/11/27 06:42:18;;;;;;;2.45;1.77;;;28.10;53.90;;;;;;4110009;28;20133;-44
2022/11/27 06:44:41;;;;;;;2.45;1.58;;;28.10;53.90;;;;;;4108044;28;20047;-44
2022/11/27 06:47:03;;;;;;;2.22;1.55;;;28.10;53.90;;;;;;4110799;28;20059;-45
2022/11/27 06:49:26;;;;;;;1.92;1.30;;;28.10;53.80;;;;;;4111279;28;20034;-47
2022/11/27 06:51:49;;;;;;;1.80;1.50;;;28.10;53.80;;;;;;4113948;28;20113;-46
2022/11/27 06:54:12;;;;;;;3.03;1.52;;;28.10;53.80;;;;;;4117819;28;20097;-44
2022/11/27 06:56:34;;;;;;;1.80;1.30;;;28.10;53.70;;;;;;4117448;28;20907;-46
2022/11/27 06:58:59;;;;;;;2.35;1.20;;;28.10;53.70;;;;;;4117860;28;20195;-48
2022/11/27 07:01:23;;;;;;;2.63;1.50;;;28.20;53.80;;;;;;4113066;28;20041;-46
2022/11/27 07:03:46;;;;;;;3.08;1.65;;;28.20;54.40;;;;;;4116411;28;20421;-44
2022/11/27 07:06:12;;;;;;;2.13;1.33;;;28.20;53.80;;;;;;4115821;28;20125;-44
2022/11/27 07:08:35;;;;;;;5.57;1.42;;;28.20;53.80;;;;;;4114834;28;20080;-43
2022/11/27 07:11:06;;;;;;;1.95;1.42;;;28.10;53.70;;;;;;4111005;28;20054;-43
2022/11/27 07:13:30;;;;;;;1.80;1.40;;;28.10;53.80;;;;;;4107897;28;20039;-44
2022/11/27 07:15:52;;;;;;;2.45;1.50;;;28.10;53.70;;;;;;4108741;28;20039;-43
2022/11/27 07:18:15;;;;;;;1.67;1.10;;;28.10;53.70;;;;;;4107002;28;20055;-46
2022/11/27 07:20:37;;;;;;;4.20;2.38;;;28.10;53.70;;;;;;4104983;28;20137;-45
2022/11/27 07:23:00;;;;;;;4.10;2.22;;;28.10;53.70;;;;;;4104567;28;20050;-44
2022/11/27 07:25:23;;;;;;;3.05;2.00;;;28.10;53.70;;;;;;4104910;28;20046;-44
2022/11/27 07:27:45;;;;;;;4.53;2.20;;;28.10;53.80;;;;;;4108734;28;20039;-44
2022/11/27 07:30:08;;;;;;;4.20;2.40;;;28.10;53.80;;;;;;4101924;28;20062;-47
2022/11/27 07:32:31;;;;;;;3.70;1.90;;;28.10;53.80;;;;;;4107609;28;20035;-43
2022/11/27 07:34:54;;;;;;;3.03;1.98;;;28.10;53.80;;;;;;4105319;28;20480;-45
2022/11/27 07:37:16;;;;;;;4.30;2.15;;;28.10;53.80;;;;;;4106876;28;20418;-45
2022/11/27 07:39:39;;;;;;;2.92;1.83;;;28.10;53.80;;;;;;4102679;28;20081;-44
2022/11/27 07:42:01;;;;;;;3.53;2.20;;;28.10;53.80;;;;;;4104556;28;20483;-46
2022/11/27 07:44:24;;;;;;;3.58;2.20;;;28.00;53.80;;;;;;4103301;28;20109;-45
2022/11/27 07:46:46;;;;;;;3.78;2.05;;;28.00;53.70;;;;;;4109495;28;20047;-45
2022/11/27 07:49:09;;;;;;;2.72;1.95;;;28.00;53.70;;;;;;4111751;28;20045;-44
2022/11/27 07:51:31;;;;;;;3.55;2.28;;;28.00;53.70;;;;;;4104800;28;20545;-44
2022/11/27 07:53:54;;;;;;;3.58;2.35;;;28.00;53.80;;;;;;4106911;28;20514;-44
2022/11/27 07:56:17;;;;;;;3.45;2.03;;;28.00;53.80;;;;;;4093694;28;20045;-46
2022/11/27 07:58:40;;;;;;;4.17;2.53;;;28.00;53.80;;;;;;4105092;28;20051;-46
2022/11/27 08:01:07;;;;;;;4.28;2.75;;;28.00;53.80;;;;;;4103849;28;20297;-44
2022/11/27 08:03:29;;;;;;;4.07;2.15;;;28.00;53.80;;;;;;4106895;28;20050;-43
2022/11/27 08:05:52;;;;;;;4.07;2.30;;;28.00;53.80;;;;;;4105479;28;20466;-45
2022/11/27 08:08:14;;;;;;;4.00;2.60;;;28.00;53.90;;;;;;4109400;28;20053;-43
2022/11/27 08:10:38;;;;;;;4.00;2.30;;;28.00;53.90;;;;;;4106966;28;20494;-45
2022/11/27 08:13:01;;;;;;;4.70;2.28;;;27.90;53.90;;;;;;4109175;28;20038;-43
2022/11/27 08:15:23;;;;;;;4.53;2.63;;;28.00;53.90;;;;;;4107401;28;20121;-44
2022/11/27 08:17:46;;;;;;;5.57;2.80;;;27.90;53.90;;;;;;4110545;28;20141;-43
2022/11/27 08:20:10;;;;;;;5.95;3.70;;;27.90;54.10;;;;;;4107515;28;20078;-47
2022/11/27 08:22:32;;;;;;;5.90;3.70;;;27.80;54.10;;;;;;4107630;28;20046;-44
2022/11/27 08:24:55;;;;;;;6.80;3.53;;;27.80;54.30;;;;;;4094334;28;20054;-50
2022/11/27 08:27:17;;;;;;;6.15;3.55;;;27.80;54.30;;;;;;4103367;28;20047;-44
2022/11/27 08:29:40;;;;;;;8.00;4.17;;;27.80;54.40;;;;;;4103605;28;20030;-46
2022/11/27 08:32:03;;;;;;;6.90;3.63;;;27.80;54.50;;;;;;4108582;28;20103;-43
2022/11/27 08:34:26;;;;;;;6.28;3.47;;;27.70;54.50;;;;;;4110758;28;20481;-45
2022/11/27 08:36:48;;;;;;;6.65;3.78;;;27.70;54.60;;;;;;4112343;28;20043;-46
2022/11/27 08:39:11;;;;;;;6.05;3.70;;;27.70;54.60;;;;;;4107945;28;20120;-49
2022/11/27 08:41:33;;;;;;;7.28;3.83;;;27.70;54.60;;;;;;4104887;28;20074;-44
2022/11/27 08:43:56;;;;;;;6.40;3.83;;;27.70;54.70;;;;;;4100507;28;20105;-46
2022/11/27 08:46:18;;;;;;;6.07;3.47;;;27.70;54.70;;;;;;4102034;28;20061;-44
2022/11/27 08:48:41;;;;;;;5.38;2.90;;;27.70;54.80;;;;;;4102244;28;20038;-44
2022/11/27 08:51:12;;;;;;;4.97;3.20;;;27.70;54.80;;;;;;4103678;28;20053;-44
2022/11/27 08:53:36;;;;;;;6.30;2.92;;;27.70;54.80;;;;;;4104533;28;20050;-44
2022/11/27 08:56:06;;;;;;;5.43;3.25;;;27.60;54.80;;;;;;4103180;28;20050;-45
2022/11/27 08:58:28;;;;;;;5.63;2.95;;;27.60;55.50;;;;;;4100962;28;20763;-47
2022/11/27 09:00:51;;;;;;;5.97;2.75;;;27.60;54.90;;;;;;4101319;28;20494;-48
2022/11/27 09:03:14;;;;;;;4.70;2.70;;;27.60;55.00;;;;;;4104317;28;20042;-48
2022/11/27 09:05:40;;;;;;;5.20;3.10;;;27.60;55.00;;;;;;4102771;28;20039;-43
2022/11/27 09:08:04;;;;;;;3.92;2.35;;;27.60;55.00;;;;;;4103012;28;20049;-46
2022/11/27 09:10:26;;;;;;;4.70;2.28;;;27.50;55.00;;;;;;4102202;28;20128;-43
2022/11/27 09:12:50;;;;;;;4.00;2.35;;;27.60;55.10;;;;;;4102561;28;20073;-50
2022/11/27 09:15:13;;;;;;;5.13;2.58;;;27.50;55.10;;;;;;4103068;28;20137;-48
2022/11/27 09:17:35;;;;;;;5.60;2.33;;;27.50;55.20;;;;;;4104863;28;20046;-44
2022/11/27 09:19:58;;;;;;;3.92;2.10;;;27.50;55.30;;;;;;4104690;28;20034;-43
2022/11/27 09:22:20;;;;;;;4.97;1.92;;;27.50;55.40;;;;;;4101170;28;20761;-49
2022/11/27 09:24:43;;;;;;;3.10;1.95;;;27.50;55.50;;;;;;4103336;28;20035;-43
2022/11/27 09:27:05;;;;;;;2.88;1.85;;;27.50;55.60;;;;;;4089013;28;20051;-44
2022/11/27 09:29:28;;;;;;;4.10;2.03;;;27.50;55.60;;;;;;4102249;28;20501;-43
2022/11/27 09:31:50;;;;;;;2.80;1.88;;;27.50;55.70;;;;;;4100352;28;20039;-47
2022/11/27 09:34:13;;;;;;;3.22;1.83;;;27.50;55.80;;;;;;4108284;28;20034;-43
2022/11/27 09:36:36;;;;;;;3.75;2.10;;;27.40;55.80;;;;;;4102702;28;20117;-45
2022/11/27 09:38:59;;;;;;;2.27;1.57;;;27.50;55.90;;;;;;4103921;28;20062;-44
2022/11/27 09:41:38;;;;;;;3.53;1.80;;;27.40;55.90;;;;;;4104713;28;20792;-47
2022/11/27 09:44:05;;;;;;;3.35;1.80;;;27.40;56.00;;;;;;4105160;28;20541;-45
2022/11/27 09:46:40;;;;;;;3.60;2.03;;;27.40;56.00;;;;;;4103186;28;20063;-44
2022/11/27 09:49:09;;;;;;;2.92;2.13;;;27.40;56.00;;;;;;4108321;28;20441;-44
2022/11/27 09:51:34;;;;;;;2.85;1.95;;;27.40;56.10;;;;;;4099207;28;20073;-43
2022/11/27 09:54:04;;;;;;;4.63;1.90;;;27.40;56.30;;;;;;4115393;28;20463;-45
2022/11/27 09:56:26;;;;;;;2.83;1.70;;;27.40;56.20;;;;;;4116024;28;20035;-47
2022/11/27 09:58:59;;;;;;;3.05;1.67;;;27.40;56.30;;;;;;4110708;28;20597;-43
2022/11/27 10:01:26;;;;;;;2.90;1.60;;;27.40;56.40;;;;;;4112972;28;20039;-47
2022/11/27 10:03:49;;;;;;;2.03;1.50;;;27.30;56.40;;;;;;4112763;28;20050;-43
2022/11/27 10:06:19;;;;;;;3.50;2.03;;;27.30;56.40;;;;;;4118587;28;20042;-47
2022/11/27 10:09:14;;;;;;;3.33;1.88;;;27.30;56.50;;;;;;4116277;28;20073;-48
2022/11/27 10:11:41;;;;;;;2.80;1.75;;;27.30;56.60;;;;;;4111229;28;20478;-47
2022/11/27 10:14:27;;;;;;;2.65;1.80;;;27.30;56.70;;;;;;4114537;28;20053;-45
2022/11/27 10:16:53;;;;;;;2.60;1.40;;;27.30;56.80;;;;;;4115729;28;20042;-46
2022/11/27 10:19:28;;;;;;;2.55;1.60;;;27.30;56.90;;;;;;4112641;28;20491;-45
2022/11/27 10:21:54;;;;;;;2.17;1.60;;;27.30;56.90;;;;;;4109490;28;20407;-44
2022/11/27 10:24:35;;;;;;;3.13;1.80;;;27.30;57.00;;;;;;4105177;28;20395;-47
2022/11/27 10:26:59;;;;;;;3.47;1.60;;;27.30;57.10;;;;;;4114569;28;20042;-43
2022/11/27 10:29:36;;;;;;;2.83;1.75;;;27.30;57.20;;;;;;4118315;28;20039;-47
2022/11/27 10:32:10;;;;;;;2.75;1.70;;;27.30;57.20;;;;;;4113729;28;20199;-45
2022/11/27 10:34:57;;;;;;;2.58;1.38;;;27.20;57.20;;;;;;4113639;28;20501;-47
2022/11/27 10:37:39;;;;;;;2.90;1.70;;;27.20;57.30;;;;;;4114101;28;20414;-44
2022/11/27 10:40:11;;;;;;;2.72;1.67;;;27.20;57.40;;;;;;4109496;28;20050;-47
2022/11/27 10:42:50;;;;;;;2.75;1.58;;;27.20;57.40;;;;;;4109852;28;20057;-46
2022/11/27 10:45:23;;;;;;;2.80;1.75;;;27.20;57.50;;;;;;4109067;28;20122;-46
2022/11/27 10:47:47;;;;;;;3.08;1.90;;;27.20;57.50;;;;;;4093662;28;20135;-44
2022/11/27 10:50:17;;;;;;;2.80;1.50;;;27.20;57.60;;;;;;4091269;28;20043;-44
2022/11/27 10:52:49;;;;;;;4.28;1.80;;;27.20;57.60;;;;;;4097136;28;20097;-43
2022/11/27 10:55:20;;;;;;;2.25;1.48;;;27.10;57.50;;;;;;4091833;28;20046;-45
2022/11/27 10:58:05;;;;;;;2.65;1.50;;;27.10;57.60;;;;;;4094074;28;20077;-43
2022/11/27 11:00:27;;;;;;;2.92;1.52;;;27.10;57.60;;;;;;4097609;28;20047;-43
2022/11/27 11:03:03;;;;;;;2.58;1.40;;;27.10;57.70;;;;;;4091894;28;20056;-42
2022/11/27 11:05:27;;;;;;;2.75;1.52;;;27.10;57.70;;;;;;4097233;28;20032;-46
2022/11/27 11:08:00;;;;;;;2.30;1.30;;;27.10;57.70;;;;;;4096783;28;20055;-44
2022/11/27 11:10:42;;;;;;;2.53;1.30;;;27.10;57.80;;;;;;4100102;28;20042;-47
2022/11/27 11:13:28;;;;;;;1.90;1.33;;;27.10;57.80;;;;;;4091734;28;20039;-43
2022/11/27 11:16:06;;;;;;;2.80;1.70;;;27.10;57.80;;;;;;4094124;28;20274;-43
2022/11/27 11:18:34;;;;;;;3.03;1.58;;;27.10;57.80;;;;;;4100502;28;20035;-46
2022/11/27 11:21:04;;;;;;;2.83;1.45;;;27.00;57.90;;;;;;4098548;28;20049;-44
2022/11/27 11:23:31;;;;;;;2.35;1.30;;;27.00;58.00;;;;;;4095080;28;20067;-44
2022/11/27 11:25:57;;;;;;;3.17;1.30;;;27.00;58.10;;;;;;4091291;28;20042;-44
2022/11/27 11:28:21;;;;;;;3.38;1.35;;;27.00;58.00;;;;;;4093523;28;20090;-46
2022/11/27 11:30:51;;;;;;;4.93;1.70;;;27.00;58.50;;;;;;4094150;28;20139;-48
2022/11/27 11:33:14;;;;;;;8.73;1.67;;;27.00;58.70;;;;;;4089687;28;20043;-48
2022/11/27 11:35:37;;;;;;;10.23;1.43;;;27.00;59.10;;;;;;4089953;28;20498;-45
2022/11/27 11:38:01;;;;;;;2.42;1.10;;;26.90;59.20;;;;;;4090596;28;20058;-45
2022/11/27 11:40:32;;;;;;;20.83;1.80;;;26.90;59.40;;;;;;4092893;28;20035;-47
2022/11/27 11:43:04;;;;;;;2.78;1.63;;;27.00;59.40;;;;;;4094282;28;20058;-42
2022/11/27 11:45:33;;;;;;;5.10;1.05;;;27.00;59.60;;;;;;4092070;28;20071;-46
2022/11/27 11:47:58;;;;;;;2.72;1.33;;;27.00;59.40;;;;;;4108027;28;20054;-45
2022/11/27 11:50:36;;;;;;;3.33;0.90;;;27.00;59.40;;;;;;4107297;28;20282;-46
2022/11/27 11:53:25;;;;;;;3.10;1.20;;;27.00;59.30;;;;;;4108262;28;20030;-43
2022/11/27 11:56:17;;;;;;;1.65;0.90;;;27.00;59.40;;;;;;4104035;28;20050;-45
2022/11/27 11:58:49;;;;;;;8.00;1.30;;;27.00;59.60;;;;;;4108943;28;20065;-43
2022/11/27 12:01:37;;;;;;;1.35;0.85;;;27.00;59.50;;;;;;4108702;28;20119;-47
2022/11/27 12:04:36;;;;;;;2.20;0.90;;;27.00;59.50;;;;;;4104903;28;20054;-50
2022/11/27 12:07:14;;;;;;;1.63;0.70;;;26.90;59.50;;;;;;4107590;28;20038;-48
2022/11/27 12:09:55;;;;;;;2.75;1.23;;;27.00;59.70;;;;;;4106914;28;20041;-44
2022/11/27 12:12:38;;;;;;;4.15;1.08;;;27.00;59.70;;;;;;4108348;28;20077;-46
2022/11/27 12:15:36;;;;;;;4.13;0.83;;;27.00;59.70;;;;;;4106496;28;20090;-44
2022/11/27 12:17:59;;;;;;;3.58;1.20;;;27.00;59.60;;;;;;4086639;28;20038;-47
2022/11/27 12:20:44;;;;;;;3.88;0.50;;;27.00;59.60;;;;;;4104155;28;20045;-46
2022/11/27 12:23:23;;;;;;;5.97;0.85;;;27.00;59.50;;;;;;4103394;28;20085;-43
2022/11/27 12:26:09;;;;;;;7.45;1.13;;;27.00;59.50;;;;;;4105578;28;20055;-44
2022/11/27 12:28:50;;;;;;;7.80;1.30;;;27.10;59.60;;;;;;4105608;28;20418;-45
2022/11/27 12:31:45;;;;;;;5.93;1.00;;;27.10;59.60;;;;;;4106544;28;20125;-46
2022/11/27 12:34:29;;;;;;;12.20;1.42;;;27.10;59.60;;;;;;4108236;28;20049;-48
2022/11/27 12:36:54;;;;;;;;;;;27.10;59.70;;;;;;4105829;28;20463;-44
2022/11/27 12:39:32;;;;;;;7.07;1.17;;;27.10;59.50;;;;;;4105623;28;20365;-47
2022/11/27 12:42:23;;;;;;;4.63;0.90;;;27.10;59.60;;;;;;4104079;28;20042;-47
2022/11/27 12:45:10;;;;;;;15.15;1.40;;;27.10;59.50;;;;;;4106351;28;20125;-44
2022/11/27 12:47:39;;;;;;;13.05;1.45;;;27.10;59.60;;;;;;4104798;28;20098;-46
2022/11/27 12:50:19;;;;;;;7.18;1.15;;;27.00;59.40;;;;;;4106339;28;20035;-47
2022/11/27 12:52:45;;;;;;;3.00;0.90;;;27.00;59.40;;;;;;4107602;28;20119;-44